All
Ljungbyhed Airport (Ljungbyhed) ESTL Weather
|
Ljungbyhed (ESTL)
Clear skies
Light winds |
|
33 °F |
ESTL Terminal Area Forecast
| Date | Time (CEST) | Flight Rules | Wind Dir. | Speed | Type | Height AGL (ft) | Visibility | Remarks | ||||||
|---|---|---|---|---|---|---|---|---|---|---|---|---|---|---|
Recent ESTL METAR history
| Date | Time (CEST) | Flight Rules | Wind Dir. | Speed | Type | Height AGL (ft) | Visibility | Temp (°C) | Temp (°F) | Dew Point (°C) | Dew Point (°F) | Rel. Humid. | Pressure | Density Altitude | Remarks |
|---|---|---|---|---|---|---|---|---|---|---|---|---|---|---|---|
| 10-May | 04:50AM | VFR | 90° | 4 kt | 10000 meters | 1° | 33° | -1° | 30° | 86% | 1017 mb | -1,652 ft | |||
| 10-May | 04:20AM | VFR | 80° | 3 kt | 10000 meters | 1° | 33° | -1° | 30° | 86% | 1018 mb | -1,682 ft | |||
| 10-May | 03:50AM | VFR | 100° | 4 kt | 10000 meters | 1° | 33° | -1° | 30° | 86% | 1018 mb | -1,682 ft | |||
| 10-May | 03:20AM | VFR | 120° | 4 kt | 10000 meters | 1° | 33° | 0° | 32° | 93% | 1018 mb | -1,682 ft | |||
| 10-May | 02:50AM | VFR | 110° | 5 kt | 10000 meters | 1° | 33° | 0° | 32° | 93% | 1019 mb | -1,711 ft | |||
| 10-May | 02:20AM | VFR | 120° | 4 kt | 10000 meters | 2° | 35° | 1° | 33° | 93% | 1019 mb | -1,591 ft | |||
| 10-May | 01:50AM | VFR | 120° | 3 kt | 10000 meters | 2° | 35° | 1° | 33° | 93% | 1020 mb | -1,621 ft | |||
| 10-May | 01:20AM | VFR | 90° | 3 kt | 10000 meters | 2° | 35° | 1° | 33° | 93% | 1020 mb | -1,621 ft | |||
| 10-May | 12:50AM | VFR | 90° | 3 kt | 10000 meters | 3° | 37° | 2° | 35° | 93% | 1020 mb | -1,501 ft | |||
| 10-May | 12:20AM | VFR | 70° | 1 kt | 10000 meters | 3° | 37° | 2° | 35° | 93% | 1020 mb | -1,501 ft | |||
| 09-May | 11:50PM | VFR | 130° | 1 kt | 10000 meters | 4° | 39° | 1° | 33° | 81% | 1020 mb | -1,381 ft | |||
| 09-May | 11:20PM | VFR | 70° | 2 kt | 10000 meters | 4° | 39° | 2° | 35° | 87% | 1020 mb | -1,381 ft | |||
| 09-May | 10:50PM | VFR | Calm | 10000 meters | 6° | 42° | 2° | 35° | 75% | 1020 mb | -1,141 ft | ||||
| 09-May | 10:20PM | VFR | 90° | 1 kt | 10000 meters | 7° | 44° | 2° | 35° | 70% | 1020 mb | -1,021 ft | |||
| 09-May | 09:50PM | VFR | Variable | 1 kt | 10000 meters | 8° | 46° | 2° | 35° | 66% | 1020 mb | -901 ft | |||
| 09-May | 09:20PM | VFR | Calm | 10000 meters | 10° | 50° | 2° | 35° | 57% | 1020 mb | -661 ft | ||||
| 09-May | 08:50PM | VFR | Variable | 3 kt | 10000 meters | 11° | 51° | 2° | 35° | 54% | 1020 mb | -541 ft | |||
| 09-May | 08:20PM | VFR | 220° | 5 kt | 10000 meters | 12° | 53° | 2° | 35° | 50% | 1020 mb | -421 ft | |||
| 09-May | 07:50PM | VFR | 230° | 4 kt | 10000 meters | 14° | 57° | 2° | 35° | 44% | 1020 mb | -181 ft | |||
| 09-May | 07:20PM | VFR | 220° | 6 kt | 10000 meters | 15° | 59° | 2° | 35° | 41% | 1020 mb | -61 ft | |||
| 09-May | 06:50PM | VFR | 220° | 7 kt | 10000 meters | 15° | 59° | 2° | 35° | 41% | 1020 mb | -61 ft | |||
| 09-May | 06:20PM | VFR | 200° | 7 kt | 10000 meters | 15° | 59° | 2° | 35° | 41% | 1020 mb | -61 ft | |||
| 09-May | 05:50PM | VFR | 220° | 7 kt | 10000 meters | 16° | 60° | 3° | 37° | 42% | 1020 mb | 59 ft | |||
| 09-May | 05:20PM | VFR | 220° | 9 kt | 10000 meters | 16° | 60° | 2° | 35° | 39% | 1021 mb | 30 ft |
Login
| Your browser is unsupported. upgrade your browser |
